sensor_id;sensor_type;location;lat;lon;timestamp;pressure;altitude;pressure_sealevel;temperature;humidity
77410;BME280;66481;51.332;22.804;2023-08-20T00:00:47;99807.69;;;19.71;100.00
77410;BME280;66481;51.332;22.804;2023-08-20T00:05:08;99797.97;;;19.78;100.00
77410;BME280;66481;51.332;22.804;2023-08-20T00:09:09;99786.91;;;19.81;100.00
77410;BME280;66481;51.332;22.804;2023-08-20T00:13:10;99793.78;;;19.59;100.00
77410;BME280;66481;51.332;22.804;2023-08-20T00:17:11;99787.88;;;19.64;100.00
77410;BME280;66481;51.332;22.804;2023-08-20T00:21:13;99794.63;;;19.60;100.00
77410;BME280;66481;51.332;22.804;2023-08-20T00:25:15;99796.31;;;19.61;100.00
77410;BME280;66481;51.332;22.804;2023-08-20T00:29:16;99795.59;;;19.59;100.00
77410;BME280;66481;51.332;22.804;2023-08-20T00:33:17;99802.50;;;19.61;100.00
77410;BME280;66481;51.332;22.804;2023-08-20T00:37:19;99798.00;;;19.53;100.00
77410;BME280;66481;51.332;22.804;2023-08-20T00:41:20;99792.25;;;19.57;100.00
77410;BME280;66481;51.332;22.804;2023-08-20T00:45:23;99786.72;;;19.50;100.00
77410;BME280;66481;51.332;22.804;2023-08-20T00:49:24;99804.84;;;19.56;100.00
77410;BME280;66481;51.332;22.804;2023-08-20T00:53:25;99792.63;;;19.53;100.00
77410;BME280;66481;51.332;22.804;2023-08-20T00:57:27;99780.84;;;19.54;100.00
77410;BME280;66481;51.332;22.804;2023-08-20T01:01:28;99783.91;;;19.43;100.00
77410;BME280;66481;51.332;22.804;2023-08-20T01:05:33;99773.84;;;19.37;100.00
77410;BME280;66481;51.332;22.804;2023-08-20T01:10:20;99786.56;;;19.51;100.00
77410;BME280;66481;51.332;22.804;2023-08-20T01:14:23;99793.13;;;19.49;100.00
77410;BME280;66481;51.332;22.804;2023-08-20T01:18:24;99793.13;;;19.41;100.00
77410;BME280;66481;51.332;22.804;2023-08-20T01:31:26;99777.34;;;19.38;100.00
77410;BME280;66481;51.332;22.804;2023-08-20T01:35:28;99783.72;;;19.28;100.00
77410;BME280;66481;51.332;22.804;2023-08-20T01:39:28;99781.88;;;19.29;100.00
77410;BME280;66481;51.332;22.804;2023-08-20T01:43:29;99787.75;;;19.32;100.00
77410;BME280;66481;51.332;22.804;2023-08-20T01:47:30;99779.19;;;19.45;100.00
77410;BME280;66481;51.332;22.804;2023-08-20T01:51:31;99779.88;;;19.47;100.00
77410;BME280;66481;51.332;22.804;2023-08-20T01:55:32;99781.06;;;19.28;100.00
77410;BME280;66481;51.332;22.804;2023-08-20T01:59:33;99785.56;;;19.11;100.00
77410;BME280;66481;51.332;22.804;2023-08-20T02:03:36;99788.75;;;19.15;100.00
77410;BME280;66481;51.332;22.804;2023-08-20T02:07:36;99788.59;;;19.25;100.00
77410;BME280;66481;51.332;22.804;2023-08-20T02:11:37;99789.09;;;19.53;100.00
77410;BME280;66481;51.332;22.804;2023-08-20T02:15:38;99785.56;;;19.52;100.00
77410;BME280;66481;51.332;22.804;2023-08-20T02:19:39;99778.69;;;19.25;100.00
77410;BME280;66481;51.332;22.804;2023-08-20T02:23:40;99783.88;;;19.19;100.00
77410;BME280;66481;51.332;22.804;2023-08-20T02:27:41;99779.56;;;19.17;100.00
77410;BME280;66481;51.332;22.804;2023-08-20T02:31:42;99777.84;;;19.08;100.00
77410;BME280;66481;51.332;22.804;2023-08-20T02:35:43;99776.00;;;19.17;100.00
77410;BME280;66481;51.332;22.804;2023-08-20T02:39:43;99774.34;;;19.16;100.00
77410;BME280;66481;51.332;22.804;2023-08-20T02:43:45;99774.84;;;19.11;100.00
77410;BME280;66481;51.332;22.804;2023-08-20T02:47:45;99777.03;;;19.08;100.00
77410;BME280;66481;51.332;22.804;2023-08-20T02:51:47;99769.63;;;19.10;100.00
77410;BME280;66481;51.332;22.804;2023-08-20T02:55:48;99775.84;;;19.27;100.00
77410;BME280;66481;51.332;22.804;2023-08-20T02:59:50;99771.66;;;19.16;100.00
77410;BME280;66481;51.332;22.804;2023-08-20T03:03:51;99774.34;;;19.08;100.00
77410;BME280;66481;51.332;22.804;2023-08-20T03:07:52;99771.00;;;19.06;100.00
77410;BME280;66481;51.332;22.804;2023-08-20T03:11:53;99770.16;;;19.05;100.00
77410;BME280;66481;51.332;22.804;2023-08-20T03:15:53;99770.81;;;18.99;100.00
77410;BME280;66481;51.332;22.804;2023-08-20T03:19:55;99772.06;;;18.70;100.00
77410;BME280;66481;51.332;22.804;2023-08-20T03:23:57;99778.78;;;18.74;100.00
77410;BME280;66481;51.332;22.804;2023-08-20T03:27:58;99773.50;;;18.83;100.00
77410;BME280;66481;51.332;22.804;2023-08-20T03:31:58;99778.34;;;18.87;100.00
77410;BME280;66481;51.332;22.804;2023-08-20T03:35:59;99774.50;;;18.90;100.00
77410;BME280;66481;51.332;22.804;2023-08-20T03:40:00;99774.81;;;18.87;100.00
77410;BME280;66481;51.332;22.804;2023-08-20T03:44:01;99771.16;;;18.88;100.00
77410;BME280;66481;51.332;22.804;2023-08-20T03:48:03;99780.97;;;18.79;100.00
77410;BME280;66481;51.332;22.804;2023-08-20T03:52:04;99786.53;;;18.86;100.00
77410;BME280;66481;51.332;22.804;2023-08-20T03:56:06;99783.06;;;18.93;100.00
77410;BME280;66481;51.332;22.804;2023-08-20T04:00:08;99790.25;;;19.01;100.00
77410;BME280;66481;51.332;22.804;2023-08-20T04:04:10;99787.25;;;19.04;100.00
77410;BME280;66481;51.332;22.804;2023-08-20T04:08:11;99789.41;;;19.01;100.00
77410;BME280;66481;51.332;22.804;2023-08-20T04:12:12;99788.25;;;18.95;100.00
77410;BME280;66481;51.332;22.804;2023-08-20T04:16:13;99797.47;;;19.01;100.00
77410;BME280;66481;51.332;22.804;2023-08-20T04:20:14;99812.38;;;18.95;100.00
77410;BME280;66481;51.332;22.804;2023-08-20T04:24:15;99811.19;;;18.97;100.00
77410;BME280;66481;51.332;22.804;2023-08-20T04:28:16;99807.03;;;19.11;100.00
77410;BME280;66481;51.332;22.804;2023-08-20T04:32:17;99814.09;;;19.37;100.00
77410;BME280;66481;51.332;22.804;2023-08-20T04:36:18;99816.63;;;19.80;100.00
77410;BME280;66481;51.332;22.804;2023-08-20T04:40:18;99809.94;;;20.71;100.00
77410;BME280;66481;51.332;22.804;2023-08-20T04:44:19;99797.88;;;21.74;100.00
77410;BME280;66481;51.332;22.804;2023-08-20T04:48:20;99805.13;;;23.00;95.14
77410;BME280;66481;51.332;22.804;2023-08-20T04:52:21;99798.47;;;23.95;91.15
77410;BME280;66481;51.332;22.804;2023-08-20T04:56:23;99797.72;;;25.25;84.84
77410;BME280;66481;51.332;22.804;2023-08-20T05:00:24;99802.97;;;25.53;80.75
77410;BME280;66481;51.332;22.804;2023-08-20T05:04:25;99799.38;;;25.86;79.61
77410;BME280;66481;51.332;22.804;2023-08-20T05:08:27;99800.81;;;26.08;77.50
77410;BME280;66481;51.332;22.804;2023-08-20T05:12:28;99805.91;;;26.50;76.45
77410;BME280;66481;51.332;22.804;2023-08-20T05:16:29;99807.00;;;27.51;72.80
77410;BME280;66481;51.332;22.804;2023-08-20T05:20:30;99806.38;;;28.18;70.08
77410;BME280;66481;51.332;22.804;2023-08-20T05:24:31;99804.63;;;28.61;70.81
77410;BME280;66481;51.332;22.804;2023-08-20T05:28:32;99812.28;;;29.67;67.41
77410;BME280;66481;51.332;22.804;2023-08-20T05:32:34;99809.44;;;29.73;66.68
77410;BME280;66481;51.332;22.804;2023-08-20T05:36:34;99815.88;;;30.03;64.50
77410;BME280;66481;51.332;22.804;2023-08-20T05:40:35;99811.88;;;30.34;64.27
77410;BME280;66481;51.332;22.804;2023-08-20T05:44:37;99828.06;;;30.00;64.61
77410;BME280;66481;51.332;22.804;2023-08-20T05:48:37;99822.47;;;30.42;62.86
77410;BME280;66481;51.332;22.804;2023-08-20T05:52:38;99820.66;;;30.48;62.42
77410;BME280;66481;51.332;22.804;2023-08-20T05:56:39;99814.09;;;32.03;59.64
77410;BME280;66481;51.332;22.804;2023-08-20T06:00:40;99825.72;;;31.93;58.86
77410;BME280;66481;51.332;22.804;2023-08-20T06:04:41;99826.47;;;32.05;58.71
77410;BME280;66481;51.332;22.804;2023-08-20T06:08:42;99827.56;;;32.27;59.16
77410;BME280;66481;51.332;22.804;2023-08-20T06:12:43;99836.84;;;32.65;58.06
77410;BME280;66481;51.332;22.804;2023-08-20T06:16:44;99836.63;;;33.21;55.85
77410;BME280;66481;51.332;22.804;2023-08-20T06:20:45;99842.31;;;33.46;56.40
77410;BME280;66481;51.332;22.804;2023-08-20T06:24:46;99843.22;;;33.52;55.39
77410;BME280;66481;51.332;22.804;2023-08-20T06:28:47;99843.38;;;33.40;56.40
77410;BME280;66481;51.332;22.804;2023-08-20T06:32:47;99839.16;;;33.60;54.88
77410;BME280;66481;51.332;22.804;2023-08-20T06:36:49;99840.81;;;33.98;53.63
77410;BME280;66481;51.332;22.804;2023-08-20T06:40:50;99851.06;;;34.13;52.76
77410;BME280;66481;51.332;22.804;2023-08-20T06:44:51;99854.03;;;34.49;52.73
77410;BME280;66481;51.332;22.804;2023-08-20T06:48:51;99842.50;;;34.52;52.74
77410;BME280;66481;51.332;22.804;2023-08-20T06:52:52;99847.53;;;34.71;52.16
77410;BME280;66481;51.332;22.804;2023-08-20T06:56:54;99830.88;;;35.75;50.06
77410;BME280;66481;51.332;22.804;2023-08-20T07:00:55;99824.78;;;34.91;51.27
77410;BME280;66481;51.332;22.804;2023-08-20T07:04:56;99827.81;;;34.99;51.19
77410;BME280;66481;51.332;22.804;2023-08-20T07:08:57;99826.22;;;35.45;50.93
77410;BME280;66481;51.332;22.804;2023-08-20T07:12:58;99827.03;;;35.40;49.70
77410;BME280;66481;51.332;22.804;2023-08-20T07:16:59;99828.31;;;36.09;48.93
77410;BME280;66481;51.332;22.804;2023-08-20T07:21:03;99832.50;;;35.96;50.18
77410;BME280;66481;51.332;22.804;2023-08-20T07:25:05;99825.72;;;36.49;47.27
77410;BME280;66481;51.332;22.804;2023-08-20T07:29:09;99826.75;;;35.62;48.26
77410;BME280;66481;51.332;22.804;2023-08-20T07:33:10;99825.31;;;36.81;46.57
77410;BME280;66481;51.332;22.804;2023-08-20T07:37:12;99822.34;;;37.17;45.88
77410;BME280;66481;51.332;22.804;2023-08-20T07:41:13;99833.75;;;37.74;46.02
77410;BME280;66481;51.332;22.804;2023-08-20T07:45:14;99838.50;;;37.69;45.67
77410;BME280;66481;51.332;22.804;2023-08-20T07:49:15;99830.88;;;37.55;43.87
77410;BME280;66481;51.332;22.804;2023-08-20T07:53:16;99839.25;;;38.04;44.89
77410;BME280;66481;51.332;22.804;2023-08-20T07:57:18;99843.34;;;38.79;44.98
77410;BME280;66481;51.332;22.804;2023-08-20T08:01:19;99842.97;;;38.18;43.71
77410;BME280;66481;51.332;22.804;2023-08-20T08:05:20;99839.19;;;39.33;41.77
77410;BME280;66481;51.332;22.804;2023-08-20T08:09:27;99836.72;;;39.31;41.65
77410;BME280;66481;51.332;22.804;2023-08-20T08:13:28;99837.75;;;39.22;42.29
77410;BME280;66481;51.332;22.804;2023-08-20T08:17:30;99832.28;;;39.17;41.20
77410;BME280;66481;51.332;22.804;2023-08-20T08:21:31;99829.78;;;39.34;42.19
77410;BME280;66481;51.332;22.804;2023-08-20T08:25:32;99824.56;;;39.14;41.99
77410;BME280;66481;51.332;22.804;2023-08-20T08:29:34;99819.69;;;40.46;38.10
77410;BME280;66481;51.332;22.804;2023-08-20T08:33:36;99824.59;;;40.35;40.71
77410;BME280;66481;51.332;22.804;2023-08-20T08:37:37;99818.47;;;40.10;40.70
77410;BME280;66481;51.332;22.804;2023-08-20T08:41:38;99814.28;;;39.33;42.21
77410;BME280;66481;51.332;22.804;2023-08-20T08:45:41;99810.78;;;39.27;42.70
77410;BME280;66481;51.332;22.804;2023-08-20T08:49:44;99816.44;;;39.55;42.65
77410;BME280;66481;51.332;22.804;2023-08-20T08:53:47;99799.63;;;40.99;39.79
77410;BME280;66481;51.332;22.804;2023-08-20T08:57:48;99803.94;;;40.69;39.53
77410;BME280;66481;51.332;22.804;2023-08-20T09:01:49;99817.22;;;40.30;41.30
77410;BME280;66481;51.332;22.804;2023-08-20T09:05:51;99815.19;;;40.50;39.99
77410;BME280;66481;51.332;22.804;2023-08-20T09:09:58;99817.66;;;40.23;40.53
77410;BME280;66481;51.332;22.804;2023-08-20T09:14:01;99821.09;;;39.74;42.31
77410;BME280;66481;51.332;22.804;2023-08-20T09:18:09;99804.91;;;40.50;40.09
77410;BME280;66481;51.332;22.804;2023-08-20T09:22:12;99818.81;;;39.62;42.14
77410;BME280;66481;51.332;22.804;2023-08-20T09:26:14;99815.84;;;39.39;41.22
77410;BME280;66481;51.332;22.804;2023-08-20T09:30:18;99817.91;;;39.66;41.89
77410;BME280;66481;51.332;22.804;2023-08-20T09:34:21;99815.75;;;39.91;41.87
77410;BME280;66481;51.332;22.804;2023-08-20T09:38:23;99811.69;;;40.58;38.74
77410;BME280;66481;51.332;22.804;2023-08-20T09:42:25;99810.00;;;39.41;40.96
77410;BME280;66481;51.332;22.804;2023-08-20T09:46:31;99801.41;;;40.31;38.73
77410;BME280;66481;51.332;22.804;2023-08-20T09:50:35;99813.38;;;39.71;39.69
77410;BME280;66481;51.332;22.804;2023-08-20T09:55:16;99804.25;;;39.70;39.64
77410;BME280;66481;51.332;22.804;2023-08-20T09:59:18;99799.72;;;39.60;40.21
77410;BME280;66481;51.332;22.804;2023-08-20T10:03:20;99799.91;;;39.50;39.54
77410;BME280;66481;51.332;22.804;2023-08-20T10:07:22;99793.28;;;39.32;39.68
77410;BME280;66481;51.332;22.804;2023-08-20T10:11:25;99801.19;;;39.85;39.27
77410;BME280;66481;51.332;22.804;2023-08-20T10:15:27;99794.16;;;39.60;39.99
77410;BME280;66481;51.332;22.804;2023-08-20T10:19:30;99793.44;;;39.55;39.54
77410;BME280;66481;51.332;22.804;2023-08-20T10:23:32;99792.78;;;39.44;40.32
77410;BME280;66481;51.332;22.804;2023-08-20T10:27:38;99788.22;;;39.01;41.68
77410;BME280;66481;51.332;22.804;2023-08-20T10:31:46;99781.16;;;38.52;40.98
77410;BME280;66481;51.332;22.804;2023-08-20T10:35:48;99782.78;;;38.58;42.72
77410;BME280;66481;51.332;22.804;2023-08-20T10:39:53;99771.06;;;37.40;42.78
77410;BME280;66481;51.332;22.804;2023-08-20T10:44:00;99776.13;;;35.43;46.20
77410;BME280;66481;51.332;22.804;2023-08-20T10:48:02;99784.28;;;35.99;47.14
77410;BME280;66481;51.332;22.804;2023-08-20T10:52:03;99771.69;;;36.53;45.54
77410;BME280;66481;51.332;22.804;2023-08-20T10:56:15;99766.91;;;36.74;45.28
77410;BME280;66481;51.332;22.804;2023-08-20T11:00:20;99759.19;;;36.71;43.75
77410;BME280;66481;51.332;22.804;2023-08-20T11:04:27;99772.41;;;36.09;45.19
77410;BME280;66481;51.332;22.804;2023-08-20T11:08:32;99760.28;;;36.15;44.45
77410;BME280;66481;51.332;22.804;2023-08-20T11:12:38;99754.63;;;35.65;45.05
77410;BME280;66481;51.332;22.804;2023-08-20T11:16:40;99751.59;;;35.62;45.67
77410;BME280;66481;51.332;22.804;2023-08-20T11:20:42;99753.22;;;35.73;45.24
77410;BME280;66481;51.332;22.804;2023-08-20T11:24:44;99741.66;;;35.71;44.27
77410;BME280;66481;51.332;22.804;2023-08-20T11:28:46;99748.06;;;35.30;44.78
77410;BME280;66481;51.332;22.804;2023-08-20T11:32:48;99743.13;;;35.32;44.69
77410;BME280;66481;51.332;22.804;2023-08-20T11:36:54;99747.78;;;35.16;45.17
77410;BME280;66481;51.332;22.804;2023-08-20T11:40:57;99746.91;;;35.57;45.02
77410;BME280;66481;51.332;22.804;2023-08-20T11:45:00;99745.81;;;35.63;44.61
77410;BME280;66481;51.332;22.804;2023-08-20T11:49:02;99739.22;;;35.49;44.61
77410;BME280;66481;51.332;22.804;2023-08-20T11:53:05;99744.09;;;34.44;47.49
77410;BME280;66481;51.332;22.804;2023-08-20T11:57:11;99727.88;;;34.42;45.74
77410;BME280;66481;51.332;22.804;2023-08-20T12:01:13;99722.72;;;34.77;46.40
77410;BME280;66481;51.332;22.804;2023-08-20T12:05:27;99725.50;;;34.82;46.40
77410;BME280;66481;51.332;22.804;2023-08-20T12:09:29;99722.41;;;34.63;46.98
77410;BME280;66481;51.332;22.804;2023-08-20T12:13:30;99725.22;;;34.83;46.41
77410;BME280;66481;51.332;22.804;2023-08-20T12:17:34;99705.91;;;34.58;45.10
77410;BME280;66481;51.332;22.804;2023-08-20T12:21:37;99717.97;;;34.46;47.34
77410;BME280;66481;51.332;22.804;2023-08-20T12:25:38;99706.72;;;34.58;46.41
77410;BME280;66481;51.332;22.804;2023-08-20T12:29:40;99715.59;;;35.07;46.45
77410;BME280;66481;51.332;22.804;2023-08-20T12:33:42;99704.03;;;34.79;45.24
77410;BME280;66481;51.332;22.804;2023-08-20T12:37:45;99703.16;;;34.53;46.05
77410;BME280;66481;51.332;22.804;2023-08-20T12:41:47;99702.00;;;34.43;47.35
77410;BME280;66481;51.332;22.804;2023-08-20T12:45:49;99708.38;;;34.54;47.14
77410;BME280;66481;51.332;22.804;2023-08-20T12:49:50;99701.28;;;34.74;46.58
77410;BME280;66481;51.332;22.804;2023-08-20T12:53:52;99707.69;;;34.16;47.10
77410;BME280;66481;51.332;22.804;2023-08-20T12:57:56;99709.25;;;33.97;49.46
77410;BME280;66481;51.332;22.804;2023-08-20T13:01:58;99699.25;;;34.23;47.97
77410;BME280;66481;51.332;22.804;2023-08-20T13:06:02;99701.56;;;33.88;47.22
77410;BME280;66481;51.332;22.804;2023-08-20T13:10:04;99692.19;;;33.84;48.28
77410;BME280;66481;51.332;22.804;2023-08-20T13:14:05;99698.47;;;33.75;49.83
77410;BME280;66481;51.332;22.804;2023-08-20T13:18:07;99698.25;;;33.81;50.59
77410;BME280;66481;51.332;22.804;2023-08-20T13:22:08;99691.03;;;33.70;49.73
77410;BME280;66481;51.332;22.804;2023-08-20T13:26:10;99688.13;;;33.97;50.06
77410;BME280;66481;51.332;22.804;2023-08-20T13:30:12;99681.44;;;33.78;49.63
77410;BME280;66481;51.332;22.804;2023-08-20T13:34:14;99695.38;;;33.66;49.58
77410;BME280;66481;51.332;22.804;2023-08-20T13:38:15;99687.72;;;33.25;50.59
77410;BME280;66481;51.332;22.804;2023-08-20T13:42:17;99676.81;;;33.35;48.55
77410;BME280;66481;51.332;22.804;2023-08-20T13:46:18;99674.22;;;33.19;47.81
77410;BME280;66481;51.332;22.804;2023-08-20T13:50:20;99680.66;;;33.34;49.35
77410;BME280;66481;51.332;22.804;2023-08-20T13:54:22;99680.09;;;33.32;48.75
77410;BME280;66481;51.332;22.804;2023-08-20T13:58:23;99675.38;;;33.23;48.84
77410;BME280;66481;51.332;22.804;2023-08-20T14:02:25;99670.50;;;32.97;48.88
77410;BME280;66481;51.332;22.804;2023-08-20T14:06:26;99667.25;;;33.06;48.97
77410;BME280;66481;51.332;22.804;2023-08-20T14:10:29;99671.69;;;32.74;48.95
77410;BME280;66481;51.332;22.804;2023-08-20T14:14:31;99670.38;;;32.82;50.04
77410;BME280;66481;51.332;22.804;2023-08-20T14:18:33;99662.38;;;32.48;50.61
77410;BME280;66481;51.332;22.804;2023-08-20T14:22:35;99666.25;;;32.52;50.66
77410;BME280;66481;51.332;22.804;2023-08-20T14:26:36;99660.19;;;32.23;51.56
77410;BME280;66481;51.332;22.804;2023-08-20T14:30:38;99665.16;;;32.26;51.80
77410;BME280;66481;51.332;22.804;2023-08-20T14:34:40;99668.06;;;32.41;51.86
77410;BME280;66481;51.332;22.804;2023-08-20T14:38:41;99675.88;;;32.28;51.93
77410;BME280;66481;51.332;22.804;2023-08-20T14:42:42;99667.06;;;32.03;51.93
77410;BME280;66481;51.332;22.804;2023-08-20T14:46:43;99682.75;;;32.08;54.07
77410;BME280;66481;51.332;22.804;2023-08-20T14:50:45;99676.34;;;32.02;54.11
77410;BME280;66481;51.332;22.804;2023-08-20T14:54:46;99689.97;;;31.75;53.58
77410;BME280;66481;51.332;22.804;2023-08-20T14:58:48;99696.34;;;31.25;55.69
77410;BME280;66481;51.332;22.804;2023-08-20T15:02:50;99695.91;;;30.65;57.74
77410;BME280;66481;51.332;22.804;2023-08-20T15:06:52;99699.59;;;30.59;58.11
77410;BME280;66481;51.332;22.804;2023-08-20T15:10:57;99693.03;;;30.43;58.23
77410;BME280;66481;51.332;22.804;2023-08-20T15:15:01;99693.38;;;30.47;58.49
77410;BME280;66481;51.332;22.804;2023-08-20T15:19:02;99695.38;;;30.11;59.55
77410;BME280;66481;51.332;22.804;2023-08-20T15:23:04;99690.13;;;29.69;60.28
77410;BME280;66481;51.332;22.804;2023-08-20T15:27:05;99681.59;;;29.53;60.91
77410;BME280;66481;51.332;22.804;2023-08-20T15:31:07;99688.59;;;29.25;61.50
77410;BME280;66481;51.332;22.804;2023-08-20T15:35:08;99682.44;;;29.54;62.56
77410;BME280;66481;51.332;22.804;2023-08-20T15:39:10;99688.25;;;29.34;62.58
77410;BME280;66481;51.332;22.804;2023-08-20T15:43:13;99691.44;;;29.19;62.32
77410;BME280;66481;51.332;22.804;2023-08-20T15:47:14;99684.50;;;28.81;63.38
77410;BME280;66481;51.332;22.804;2023-08-20T15:51:16;99694.31;;;28.70;64.97
77410;BME280;66481;51.332;22.804;2023-08-20T15:55:17;99695.13;;;28.59;64.50
77410;BME280;66481;51.332;22.804;2023-08-20T15:59:18;99699.94;;;28.57;65.54
77410;BME280;66481;51.332;22.804;2023-08-20T16:03:19;99708.38;;;28.55;65.51
77410;BME280;66481;51.332;22.804;2023-08-20T16:07:20;99698.94;;;28.51;65.48
77410;BME280;66481;51.332;22.804;2023-08-20T16:11:21;99708.66;;;28.47;66.29
77410;BME280;66481;51.332;22.804;2023-08-20T16:15:22;99705.19;;;28.40;66.33
77410;BME280;66481;51.332;22.804;2023-08-20T16:19:25;99703.09;;;28.23;66.40
77410;BME280;66481;51.332;22.804;2023-08-20T16:23:26;99703.84;;;28.30;66.00
77410;BME280;66481;51.332;22.804;2023-08-20T16:27:27;99702.50;;;28.21;66.26
77410;BME280;66481;51.332;22.804;2023-08-20T16:31:29;99702.38;;;28.16;65.92
77410;BME280;66481;51.332;22.804;2023-08-20T16:35:30;99697.38;;;28.13;66.71
77410;BME280;66481;51.332;22.804;2023-08-20T16:39:31;99708.47;;;28.11;67.66
77410;BME280;66481;51.332;22.804;2023-08-20T16:43:33;99707.59;;;27.99;67.61
77410;BME280;66481;51.332;22.804;2023-08-20T16:47:34;99709.06;;;27.76;69.02
77410;BME280;66481;51.332;22.804;2023-08-20T16:51:34;99713.38;;;27.66;70.05
77410;BME280;66481;51.332;22.804;2023-08-20T16:55:35;99721.00;;;27.57;69.50
77410;BME280;66481;51.332;22.804;2023-08-20T16:59:36;99718.19;;;27.45;70.17
77410;BME280;66481;51.332;22.804;2023-08-20T17:03:38;99710.81;;;27.27;70.44
77410;BME280;66481;51.332;22.804;2023-08-20T17:07:39;99715.69;;;27.18;71.67
77410;BME280;66481;51.332;22.804;2023-08-20T17:11:40;99715.41;;;27.01;71.36
77410;BME280;66481;51.332;22.804;2023-08-20T17:15:44;99720.50;;;26.91;71.91
77410;BME280;66481;51.332;22.804;2023-08-20T17:19:45;99722.25;;;26.79;72.39
77410;BME280;66481;51.332;22.804;2023-08-20T17:23:46;99718.78;;;26.58;73.05
77410;BME280;66481;51.332;22.804;2023-08-20T17:27:49;99721.88;;;26.30;74.53
77410;BME280;66481;51.332;22.804;2023-08-20T17:31:50;99721.34;;;26.08;75.57
77410;BME280;66481;51.332;22.804;2023-08-20T17:35:51;99727.41;;;25.90;75.43
77410;BME280;66481;51.332;22.804;2023-08-20T17:39:51;99729.09;;;25.78;76.02
77410;BME280;66481;51.332;22.804;2023-08-20T17:43:52;99724.16;;;25.55;78.22
77410;BME280;66481;51.332;22.804;2023-08-20T17:47:53;99739.19;;;25.44;79.68
77410;BME280;66481;51.332;22.804;2023-08-20T17:51:54;99746.84;;;25.13;81.88
77410;BME280;66481;51.332;22.804;2023-08-20T17:55:55;99743.91;;;24.95;81.56
77410;BME280;66481;51.332;22.804;2023-08-20T17:59:56;99744.34;;;24.85;81.30
77410;BME280;66481;51.332;22.804;2023-08-20T18:03:57;99751.59;;;24.71;82.74
77410;BME280;66481;51.332;22.804;2023-08-20T18:07:59;99753.47;;;24.64;82.00
77410;BME280;66481;51.332;22.804;2023-08-20T18:12:01;99754.88;;;24.60;81.88
77410;BME280;66481;51.332;22.804;2023-08-20T18:16:02;99755.25;;;24.50;82.17
77410;BME280;66481;51.332;22.804;2023-08-20T18:20:03;99756.53;;;24.54;82.54
77410;BME280;66481;51.332;22.804;2023-08-20T18:24:05;99767.69;;;24.38;82.28
77410;BME280;66481;51.332;22.804;2023-08-20T18:28:06;99767.69;;;24.31;82.58
77410;BME280;66481;51.332;22.804;2023-08-20T18:32:07;99763.88;;;24.26;82.70
77410;BME280;66481;51.332;22.804;2023-08-20T18:36:08;99770.97;;;24.27;83.01
77410;BME280;66481;51.332;22.804;2023-08-20T18:40:10;99769.56;;;23.96;86.61
77410;BME280;66481;51.332;22.804;2023-08-20T18:44:11;99768.97;;;23.44;91.15
77410;BME280;66481;51.332;22.804;2023-08-20T18:48:13;99775.31;;;23.30;92.24
77410;BME280;66481;51.332;22.804;2023-08-20T18:52:15;99775.50;;;23.28;89.81
77410;BME280;66481;51.332;22.804;2023-08-20T18:56:16;99780.97;;;23.35;88.02
77410;BME280;66481;51.332;22.804;2023-08-20T19:00:18;99777.88;;;23.16;89.49
77410;BME280;66481;51.332;22.804;2023-08-20T19:04:22;99782.84;;;23.13;88.91
77410;BME280;66481;51.332;22.804;2023-08-20T19:08:25;99787.72;;;23.24;87.65
77410;BME280;66481;51.332;22.804;2023-08-20T19:12:26;99780.50;;;23.31;87.50
77410;BME280;66481;51.332;22.804;2023-08-20T19:16:28;99783.78;;;23.48;85.59
77410;BME280;66481;51.332;22.804;2023-08-20T19:20:30;99786.91;;;23.52;85.16
77410;BME280;66481;51.332;22.804;2023-08-20T19:24:31;99786.91;;;23.52;85.17
77410;BME280;66481;51.332;22.804;2023-08-20T19:28:33;99791.09;;;23.54;84.97
77410;BME280;66481;51.332;22.804;2023-08-20T19:32:34;99793.66;;;23.62;83.72
77410;BME280;66481;51.332;22.804;2023-08-20T19:36:35;99798.00;;;23.63;83.61
77410;BME280;66481;51.332;22.804;2023-08-20T19:40:37;99798.22;;;23.62;84.08
77410;BME280;66481;51.332;22.804;2023-08-20T19:44:42;99801.13;;;23.60;84.04
77410;BME280;66481;51.332;22.804;2023-08-20T19:48:45;99802.78;;;23.61;83.92
77410;BME280;66481;51.332;22.804;2023-08-20T19:52:48;99802.53;;;23.56;84.00
77410;BME280;66481;51.332;22.804;2023-08-20T19:56:50;99802.81;;;23.68;84.28
77410;BME280;66481;51.332;22.804;2023-08-20T20:00:52;99808.81;;;23.63;84.14
77410;BME280;66481;51.332;22.804;2023-08-20T20:04:54;99807.94;;;23.56;84.90
77410;BME280;66481;51.332;22.804;2023-08-20T20:08:56;99814.38;;;23.55;84.88
77410;BME280;66481;51.332;22.804;2023-08-20T20:12:57;99807.94;;;23.56;85.30
77410;BME280;66481;51.332;22.804;2023-08-20T20:16:58;99809.50;;;23.44;85.82
77410;BME280;66481;51.332;22.804;2023-08-20T20:20:59;99813.81;;;23.38;86.19
77410;BME280;66481;51.332;22.804;2023-08-20T20:25:02;99812.47;;;23.27;87.79
77410;BME280;66481;51.332;22.804;2023-08-20T20:29:04;99827.75;;;23.20;88.45
77410;BME280;66481;51.332;22.804;2023-08-20T20:33:06;99814.78;;;23.09;89.14
77410;BME280;66481;51.332;22.804;2023-08-20T20:37:07;99818.00;;;23.04;89.03
77410;BME280;66481;51.332;22.804;2023-08-20T20:41:09;99812.34;;;22.99;89.04
77410;BME280;66481;51.332;22.804;2023-08-20T20:45:13;99825.59;;;22.94;89.62
77410;BME280;66481;51.332;22.804;2023-08-20T20:49:14;99827.13;;;22.82;90.51
77410;BME280;66481;51.332;22.804;2023-08-20T20:53:16;99830.25;;;22.64;91.80
77410;BME280;66481;51.332;22.804;2023-08-20T20:57:18;99818.06;;;22.53;92.52
77410;BME280;66481;51.332;22.804;2023-08-20T21:01:19;99828.59;;;22.48;93.02
77410;BME280;66481;51.332;22.804;2023-08-20T21:05:22;99829.06;;;22.37;93.80
77410;BME280;66481;51.332;22.804;2023-08-20T21:09:23;99822.19;;;22.34;93.79